createdAt,value
2022-09-17T00:01:23.240Z,10.00
2022-09-17T00:03:59.029Z,10.02
2022-09-17T00:06:26.093Z,9.98
2022-09-17T00:08:53.739Z,9.95
2022-09-17T00:11:24.962Z,10.00
2022-09-17T00:13:53.043Z,9.95
2022-09-17T00:16:25.851Z,9.80
2022-09-17T00:18:52.568Z,9.87
2022-09-17T00:21:19.698Z,9.81
2022-09-17T00:23:46.703Z,9.77
2022-09-17T00:26:13.563Z,9.79
2022-09-17T00:28:41.705Z,9.68
2022-09-17T00:31:09.293Z,9.58
2022-09-17T00:33:36.895Z,9.54
2022-09-17T00:36:05.104Z,9.57
2022-09-17T00:38:32.142Z,9.55
2022-09-17T00:40:58.535Z,9.52
2022-09-17T00:43:41.810Z,9.48
2022-09-17T00:46:26.308Z,9.51
2022-09-17T00:48:54.702Z,9.53
2022-09-17T00:51:29.023Z,9.57
2022-09-17T00:53:56.602Z,9.71
2022-09-17T00:56:27.784Z,9.56
2022-09-17T00:58:55.352Z,9.39
2022-09-17T01:01:21.912Z,9.44
2022-09-17T01:03:49.168Z,9.41
2022-09-17T01:06:17.131Z,9.50
2022-09-17T01:09:13.183Z,9.50
2022-09-17T01:11:58.357Z,9.48
2022-09-17T01:14:51.492Z,9.56
2022-09-17T01:17:36.660Z,9.57
2022-09-17T01:20:41.683Z,9.51
2022-09-17T01:23:28.449Z,9.53
2022-09-17T01:26:33.468Z,9.55
2022-09-17T01:29:34.595Z,9.61
2022-09-17T01:32:14.379Z,9.55
2022-09-17T01:34:58.644Z,9.49
2022-09-17T01:37:43.519Z,9.51
2022-09-17T01:40:24.352Z,9.54
2022-09-17T01:43:14.167Z,9.59
2022-09-17T01:45:50.975Z,9.53
2022-09-17T01:48:30.323Z,9.46
2022-09-17T01:51:05.084Z,9.54
2022-09-17T01:53:51.568Z,9.43
2022-09-17T01:56:26.500Z,9.41
2022-09-17T01:59:01.038Z,9.56
2022-09-17T02:01:31.860Z,9.52
2022-09-17T02:04:06.378Z,9.55
2022-09-17T02:06:38.170Z,9.51
2022-09-17T02:09:16.745Z,9.52
2022-09-17T02:11:47.875Z,9.48
2022-09-17T02:14:21.642Z,9.44
2022-09-17T02:16:55.202Z,9.42
2022-09-17T02:19:27.008Z,9.40
2022-09-17T02:21:58.701Z,9.41
2022-09-17T02:24:31.143Z,9.38
2022-09-17T02:27:05.403Z,9.33
2022-09-17T02:29:38.055Z,9.32
2022-09-17T02:32:05.301Z,9.32
2022-09-17T02:34:32.074Z,9.35
2022-09-17T02:36:59.439Z,9.29
2022-09-17T02:39:27.729Z,9.24
2022-09-17T02:42:23.913Z,9.27
2022-09-17T02:45:09.068Z,9.22
2022-09-17T02:48:03.436Z,9.20
2022-09-17T02:50:44.975Z,9.20
2022-09-17T02:53:11.275Z,9.23
2022-09-17T02:56:02.453Z,9.26
2022-09-17T02:58:47.714Z,9.32
2022-09-17T03:01:30.423Z,9.29
2022-09-17T03:04:01.024Z,9.27
2022-09-17T03:06:27.447Z,9.24
2022-09-17T03:08:54.029Z,9.08
2022-09-17T03:11:21.542Z,9.08
2022-09-17T03:13:48.169Z,9.06
2022-09-17T03:16:14.862Z,8.94
2022-09-17T03:18:41.308Z,9.00
2022-09-17T03:21:08.052Z,9.03
2022-09-17T03:23:34.414Z,9.05
2022-09-17T03:26:01.257Z,8.91
2022-09-17T03:28:27.696Z,8.95
2022-09-17T03:30:54.414Z,8.92
2022-09-17T03:33:21.148Z,8.83
2022-09-17T03:35:47.640Z,8.76
2022-09-17T03:38:14.445Z,8.70
2022-09-17T03:40:40.985Z,8.77
2022-09-17T03:43:08.557Z,8.82
2022-09-17T03:45:35.048Z,8.79
2022-09-17T03:48:01.724Z,8.79
2022-09-17T03:50:28.275Z,8.83
2022-09-17T03:52:54.648Z,8.84
2022-09-17T03:55:21.060Z,8.86
2022-09-17T03:57:47.513Z,8.87
2022-09-17T04:00:17.232Z,8.76
2022-09-17T04:02:43.758Z,8.83
2022-09-17T04:05:10.645Z,8.76
2022-09-17T04:07:37.156Z,8.79
2022-09-17T04:10:05.243Z,8.76
2022-09-17T04:12:32.021Z,8.85
2022-09-17T04:14:58.424Z,8.88
2022-09-17T04:17:24.832Z,8.79
2022-09-17T04:19:51.307Z,8.75
2022-09-17T04:22:17.936Z,8.71
2022-09-17T04:24:44.715Z,8.78
2022-09-17T04:27:11.096Z,8.69
2022-09-17T04:29:37.456Z,8.68
2022-09-17T04:32:04.088Z,8.79
2022-09-17T04:34:31.848Z,8.75
2022-09-17T04:36:59.307Z,8.71
2022-09-17T04:39:26.231Z,8.80
2022-09-17T04:41:52.588Z,8.75
2022-09-17T04:44:19.248Z,8.75
2022-09-17T04:46:45.759Z,8.71
2022-09-17T04:49:12.987Z,8.62
2022-09-17T04:51:39.387Z,8.61
2022-09-17T04:54:05.838Z,8.65
2022-09-17T04:56:32.196Z,8.63
2022-09-17T04:58:58.565Z,8.60
2022-09-17T05:01:25.022Z,8.65
2022-09-17T05:03:51.420Z,8.54
2022-09-17T05:06:17.775Z,8.59
2022-09-17T05:08:44.128Z,8.65
2022-09-17T05:11:11.004Z,8.65
2022-09-17T05:13:37.410Z,8.77
2022-09-17T05:16:03.920Z,8.63
2022-09-17T05:18:31.231Z,8.64
2022-09-17T05:20:57.591Z,8.52
2022-09-17T05:23:24.356Z,8.49
2022-09-17T05:25:50.778Z,8.46
2022-09-17T05:28:17.131Z,8.46
2022-09-17T05:30:43.507Z,8.50
2022-09-17T05:33:09.867Z,8.52
2022-09-17T05:35:36.537Z,8.61
2022-09-17T05:38:04.202Z,8.48
2022-09-17T05:40:32.976Z,8.50
2022-09-17T05:43:05.020Z,8.52
2022-09-17T05:45:34.472Z,8.61
2022-09-17T05:48:02.319Z,8.62
2022-09-17T05:50:29.583Z,8.64
2022-09-17T05:52:56.651Z,8.72
2022-09-17T05:55:24.120Z,8.67
2022-09-17T05:57:51.295Z,8.63
2022-09-17T06:00:18.766Z,8.67
2022-09-17T06:02:45.345Z,8.45
2022-09-17T06:05:12.071Z,8.49
2022-09-17T06:07:39.001Z,8.53
2022-09-17T06:10:08.181Z,8.55
2022-09-17T06:12:35.549Z,8.53
2022-09-17T06:15:03.943Z,8.62
2022-09-17T06:17:36.381Z,8.73
2022-09-17T06:20:04.986Z,8.71
2022-09-17T06:22:31.500Z,8.82
2022-09-17T06:24:59.638Z,8.86
2022-09-17T06:27:31.679Z,8.80
2022-09-17T06:29:58.040Z,8.87
2022-09-17T06:32:27.092Z,8.98
2022-09-17T06:34:53.997Z,9.00
2022-09-17T06:37:20.360Z,9.06
2022-09-17T06:39:46.750Z,8.97
2022-09-17T06:42:13.136Z,8.98
2022-09-17T06:44:40.859Z,9.08
2022-09-17T06:47:07.940Z,9.05
2022-09-17T06:49:34.540Z,9.19
2022-09-17T06:52:01.619Z,9.23
2022-09-17T06:54:28.088Z,9.32
2022-09-17T06:56:54.435Z,9.37
2022-09-17T06:59:20.991Z,9.35
2022-09-17T07:01:47.625Z,9.39
2022-09-17T07:04:14.604Z,9.45
2022-09-17T07:06:43.612Z,9.56
2022-09-17T07:09:11.199Z,9.62
2022-09-17T07:11:38.887Z,9.59
2022-09-17T07:14:06.940Z,9.76
2022-09-17T07:16:36.223Z,9.84
2022-09-17T07:19:03.841Z,9.93
2022-09-17T07:21:30.367Z,10.03
2022-09-17T07:23:56.795Z,10.20
2022-09-17T07:26:23.577Z,10.15
2022-09-17T07:28:50.153Z,10.21
2022-09-17T07:31:17.103Z,10.19
2022-09-17T07:33:44.509Z,10.01
2022-09-17T07:36:13.022Z,10.07
2022-09-17T07:38:39.755Z,10.00
2022-09-17T07:41:13.203Z,9.88
2022-09-17T07:43:40.525Z,10.11
2022-09-17T07:46:09.922Z,10.12
2022-09-17T07:48:36.547Z,10.05
2022-09-17T07:51:03.075Z,10.08
2022-09-17T07:53:29.489Z,9.97
2022-09-17T07:55:58.590Z,9.79
2022-09-17T07:58:30.876Z,9.83
2022-09-17T08:01:05.573Z,9.96
2022-09-17T08:03:32.278Z,10.09
2022-09-17T08:06:08.784Z,10.05
2022-09-17T08:08:36.548Z,9.98
2022-09-17T08:11:08.468Z,9.95
2022-09-17T08:13:35.462Z,9.98
2022-09-17T08:16:07.916Z,10.11
2022-09-17T08:18:36.298Z,10.20
2022-09-17T08:21:05.702Z,10.20
2022-09-17T08:23:35.128Z,10.25
2022-09-17T08:26:01.793Z,10.10
2022-09-17T08:28:28.926Z,10.19
2022-09-17T08:31:04.410Z,10.18
2022-09-17T08:33:32.731Z,10.18
2022-09-17T08:36:02.322Z,10.27
2022-09-17T08:38:33.502Z,10.57
2022-09-17T08:41:10.215Z,10.92
2022-09-17T08:43:44.685Z,10.92
2022-09-17T08:46:11.747Z,12.12
2022-09-17T08:48:56.844Z,12.12
2022-09-17T08:51:48.675Z,11.50
2022-09-17T08:54:42.357Z,11.23
2022-09-17T08:57:33.589Z,11.28
2022-09-17T09:00:14.433Z,10.86
2022-09-17T09:03:11.339Z,10.99
2022-09-17T09:05:50.166Z,11.01
2022-09-17T09:08:26.872Z,11.04
2022-09-17T09:10:56.678Z,11.11
2022-09-17T09:13:28.440Z,11.34
2022-09-17T09:16:11.812Z,11.26
2022-09-17T09:18:40.992Z,11.10
2022-09-17T09:21:24.160Z,11.11
2022-09-17T09:23:59.759Z,11.01
2022-09-17T09:26:38.115Z,10.88
2022-09-17T09:29:35.207Z,10.99
2022-09-17T09:32:16.552Z,10.86
2022-09-17T09:34:45.532Z,10.72
2022-09-17T09:37:26.207Z,10.63
2022-09-17T09:39:55.252Z,10.48
2022-09-17T09:42:30.575Z,10.30
2022-09-17T09:45:04.970Z,10.20
2022-09-17T09:47:50.375Z,10.16
2022-09-17T09:50:38.392Z,10.13
2022-09-17T09:53:32.072Z,9.96
2022-09-17T09:56:25.071Z,10.10
2022-09-17T09:58:51.570Z,10.27
2022-09-17T10:01:20.676Z,10.42
2022-09-17T10:03:51.832Z,10.72
2022-09-17T10:06:19.824Z,10.84
2022-09-17T10:08:51.993Z,11.45
2022-09-17T10:11:24.231Z,11.22
2022-09-17T10:13:50.697Z,11.42
2022-09-17T10:16:17.878Z,12.07
2022-09-17T10:18:45.335Z,12.21
2022-09-17T10:21:19.373Z,11.62
2022-09-17T10:23:46.711Z,11.81
2022-09-17T10:26:30.068Z,11.76
2022-09-17T10:29:02.688Z,12.01
2022-09-17T10:31:48.425Z,11.76
2022-09-17T10:34:30.076Z,11.49
2022-09-17T10:36:57.207Z,11.89
2022-09-17T10:39:38.509Z,11.99
2022-09-17T10:42:11.000Z,11.60
2022-09-17T10:44:38.551Z,11.51
2022-09-17T10:47:11.634Z,11.46
2022-09-17T10:49:42.440Z,11.54
2022-09-17T10:52:32.114Z,11.71
2022-09-17T10:55:01.963Z,11.86
2022-09-17T10:58:07.646Z,11.71
2022-09-17T11:00:34.164Z,11.53
2022-09-17T11:03:35.495Z,11.49
2022-09-17T11:06:32.719Z,11.62
2022-09-17T11:09:20.582Z,11.60
2022-09-17T11:12:00.839Z,11.84
2022-09-17T11:15:02.796Z,12.05
2022-09-17T11:17:43.069Z,11.96
2022-09-17T11:20:21.835Z,11.83
2022-09-17T11:23:03.420Z,11.95
2022-09-17T11:25:38.780Z,11.75
2022-09-17T11:28:18.270Z,11.64
2022-09-17T11:30:47.904Z,11.55
2022-09-17T11:33:39.451Z,11.72
2022-09-17T11:36:15.723Z,11.73
2022-09-17T11:38:48.740Z,11.81
2022-09-17T11:41:19.188Z,11.98
2022-09-17T11:44:15.692Z,12.30
2022-09-17T11:46:46.577Z,12.13
2022-09-17T11:49:28.433Z,12.51
2022-09-17T11:52:24.078Z,12.60
2022-09-17T11:55:09.292Z,12.66
2022-09-17T11:57:41.252Z,12.51
2022-09-17T12:00:19.998Z,12.70
2022-09-17T12:03:01.610Z,12.83
2022-09-17T12:05:37.845Z,13.92
2022-09-17T12:08:25.568Z,14.47
2022-09-17T12:11:01.816Z,13.44
2022-09-17T12:13:52.339Z,12.94
2022-09-17T12:16:26.446Z,12.69
2022-09-17T12:19:05.464Z,12.38
2022-09-17T12:21:39.042Z,12.40
2022-09-17T12:24:16.971Z,12.38
2022-09-17T12:26:55.818Z,12.57
2022-09-17T12:29:40.456Z,13.60
2022-09-17T12:32:24.604Z,13.53
2022-09-17T12:35:03.253Z,13.10
2022-09-17T12:37:54.741Z,13.01
2022-09-17T12:40:45.845Z,12.82
2022-09-17T12:43:34.466Z,12.95
2022-09-17T12:46:25.354Z,12.77
2022-09-17T12:49:29.407Z,12.96
2022-09-17T12:52:03.395Z,13.10
2022-09-17T12:54:54.299Z,13.10
2022-09-17T12:57:20.655Z,13.27
2022-09-17T13:00:01.805Z,13.59
2022-09-17T13:02:43.148Z,13.63
2022-09-17T13:05:39.761Z,13.94
2022-09-17T13:08:12.204Z,14.52
2022-09-17T13:11:00.000Z,14.23
2022-09-17T13:13:43.956Z,14.14
2022-09-17T13:16:21.819Z,14.08
2022-09-17T13:19:35.761Z,14.35
2022-09-17T13:22:09.979Z,14.93
2022-09-17T13:24:37.602Z,14.85
2022-09-17T13:27:05.698Z,15.13
2022-09-17T13:29:47.377Z,14.61
2022-09-17T13:32:32.573Z,14.27
2022-09-17T13:35:11.396Z,14.08
2022-09-17T13:37:44.934Z,13.92
2022-09-17T13:40:24.887Z,13.94
2022-09-17T13:42:55.466Z,13.57
2022-09-17T13:45:23.715Z,13.44
2022-09-17T13:47:50.021Z,13.61
2022-09-17T13:50:34.707Z,13.71
2022-09-17T13:53:13.876Z,13.55
2022-09-17T13:55:43.866Z,13.70
2022-09-17T13:58:12.620Z,13.68
2022-09-17T14:00:49.701Z,13.59
2022-09-17T14:03:28.315Z,13.72
2022-09-17T14:05:55.600Z,14.08
2022-09-17T14:08:31.184Z,14.19
2022-09-17T14:11:00.107Z,13.98
2022-09-17T14:13:42.421Z,13.89
2022-09-17T14:16:42.519Z,13.77
2022-09-17T14:19:30.831Z,13.64
2022-09-17T14:22:13.155Z,13.62
2022-09-17T14:24:42.245Z,13.61
2022-09-17T14:27:14.774Z,13.61
2022-09-17T14:30:05.370Z,13.64
2022-09-17T14:32:35.956Z,13.58
2022-09-17T14:35:15.517Z,13.65
2022-09-17T14:37:46.999Z,14.16
2022-09-17T14:40:18.865Z,13.98
2022-09-17T14:42:48.489Z,14.12
2022-09-17T14:45:23.990Z,14.71
2022-09-17T14:48:20.435Z,14.47
2022-09-17T14:50:46.821Z,14.06
2022-09-17T14:53:18.903Z,14.00
2022-09-17T14:55:50.547Z,13.75
2022-09-17T14:58:30.227Z,13.87
2022-09-17T15:00:56.821Z,13.92
2022-09-17T15:03:24.306Z,13.66
2022-09-17T15:05:51.243Z,13.75
2022-09-17T15:08:23.776Z,14.31
2022-09-17T15:11:09.535Z,14.98
2022-09-17T15:13:49.823Z,14.50
2022-09-17T15:16:20.970Z,14.85
2022-09-17T15:18:52.317Z,14.92
2022-09-17T15:21:39.425Z,14.78
2022-09-17T15:24:27.461Z,14.57
2022-09-17T15:26:58.448Z,14.38
2022-09-17T15:29:30.202Z,14.36
2022-09-17T15:31:56.943Z,14.58
2022-09-17T15:34:23.599Z,15.19
2022-09-17T15:37:05.663Z,15.15
2022-09-17T15:39:40.936Z,14.90
2022-09-17T15:42:19.571Z,14.77
2022-09-17T15:44:46.449Z,14.32
2022-09-17T15:47:50.440Z,14.03
2022-09-17T15:50:40.488Z,13.69
2022-09-17T15:53:09.875Z,13.58
2022-09-17T15:55:40.851Z,13.31
2022-09-17T15:58:27.064Z,13.08
2022-09-17T16:01:29.104Z,13.14
2022-09-17T16:03:58.521Z,13.08
2022-09-17T16:06:27.797Z,13.07
2022-09-17T16:08:56.308Z,13.04
2022-09-17T16:11:25.152Z,13.02
2022-09-17T16:13:54.012Z,13.05
2022-09-17T16:16:22.832Z,13.03
2022-09-17T16:18:50.346Z,12.92
2022-09-17T16:21:18.602Z,12.97
2022-09-17T16:23:45.787Z,12.95
2022-09-17T16:26:28.696Z,12.95
2022-09-17T16:29:02.319Z,12.89
2022-09-17T16:31:29.391Z,12.91
2022-09-17T16:33:55.881Z,12.86
2022-09-17T16:36:22.670Z,12.75
2022-09-17T16:38:49.038Z,12.70
2022-09-17T16:41:15.596Z,12.69
2022-09-17T16:43:42.011Z,12.69
2022-09-17T16:46:13.400Z,12.53
2022-09-17T16:48:41.170Z,12.37
2022-09-17T16:51:14.023Z,12.26
2022-09-17T16:53:40.608Z,12.20
2022-09-17T16:56:11.216Z,12.09
2022-09-17T16:58:37.962Z,12.09
2022-09-17T17:01:08.944Z,12.06
2022-09-17T17:03:35.623Z,12.05
2022-09-17T17:06:02.979Z,12.06
2022-09-17T17:08:32.060Z,11.96
2022-09-17T17:10:58.944Z,12.01
2022-09-17T17:13:27.597Z,11.85
2022-09-17T17:15:54.633Z,11.82
2022-09-17T17:18:21.683Z,11.75
2022-09-17T17:20:48.902Z,11.70
2022-09-17T17:23:15.831Z,11.74
2022-09-17T17:25:42.559Z,11.78
2022-09-17T17:28:10.014Z,11.64
2022-09-17T17:30:38.315Z,11.69
2022-09-17T17:33:05.310Z,11.65
2022-09-17T17:35:31.723Z,11.59
2022-09-17T17:37:58.113Z,11.50
2022-09-17T17:40:24.521Z,11.61
2022-09-17T17:42:54.607Z,11.55
2022-09-17T17:45:21.587Z,11.45
2022-09-17T17:47:48.523Z,11.42
2022-09-17T17:50:15.823Z,11.25
2022-09-17T17:52:47.579Z,11.19
2022-09-17T17:55:15.595Z,11.07
2022-09-17T17:57:41.999Z,10.94
2022-09-17T18:00:09.397Z,10.82
2022-09-17T18:02:40.344Z,10.84
2022-09-17T18:05:07.191Z,10.67
2022-09-17T18:07:33.971Z,10.55
2022-09-17T18:10:00.445Z,10.26
2022-09-17T18:12:27.230Z,10.10
2022-09-17T18:14:53.862Z,10.20
2022-09-17T18:17:20.719Z,10.11
2022-09-17T18:19:47.455Z,10.14
2022-09-17T18:22:14.455Z,10.02
2022-09-17T18:24:41.010Z,10.14
2022-09-17T18:27:07.502Z,10.06
2022-09-17T18:29:34.297Z,10.07
2022-09-17T18:32:00.918Z,10.00
2022-09-17T18:34:27.662Z,10.08
2022-09-17T18:36:54.178Z,10.10
2022-09-17T18:42:09.020Z,10.08
2022-09-17T18:44:35.932Z,9.97
2022-09-17T18:47:02.906Z,9.86
2022-09-17T18:49:29.549Z,9.86
2022-09-17T18:51:56.386Z,9.92
2022-09-17T18:54:23.312Z,9.78
2022-09-17T18:56:50.430Z,9.83
2022-09-17T18:59:17.310Z,9.92
2022-09-17T19:01:44.666Z,9.77
2022-09-17T19:04:11.216Z,9.81
2022-09-17T19:06:38.556Z,9.82
2022-09-17T19:09:06.315Z,9.81
2022-09-17T19:11:35.324Z,9.78
2022-09-17T19:14:02.551Z,9.82
2022-09-17T19:16:29.747Z,9.81
2022-09-17T19:18:56.444Z,9.73
2022-09-17T19:21:23.169Z,9.68
2022-09-17T19:23:51.663Z,9.65
2022-09-17T19:26:26.583Z,9.69
2022-09-17T19:28:54.821Z,9.75
2022-09-17T19:31:21.457Z,9.69
2022-09-17T19:33:48.667Z,9.57
2022-09-17T19:36:17.511Z,9.56
2022-09-17T19:38:45.152Z,9.45
2022-09-17T19:41:14.260Z,9.53
2022-09-17T19:43:41.403Z,9.56
2022-09-17T19:46:11.451Z,9.59
2022-09-17T19:48:47.079Z,9.52
2022-09-17T19:51:14.145Z,9.49
2022-09-17T19:53:42.141Z,9.52
2022-09-17T19:56:18.508Z,9.56
2022-09-17T19:58:46.095Z,9.65
2022-09-17T20:01:13.746Z,9.64
2022-09-17T20:03:41.759Z,9.60
2022-09-17T20:06:10.988Z,9.65
2022-09-17T20:08:46.636Z,9.60
2022-09-17T20:11:14.907Z,9.60
2022-09-17T20:13:41.547Z,9.55
2022-09-17T20:16:12.333Z,9.55
2022-09-17T20:18:39.521Z,9.63
2022-09-17T20:21:10.629Z,9.64
2022-09-17T20:23:37.139Z,9.65
2022-09-17T20:26:04.469Z,9.52
2022-09-17T20:28:31.135Z,9.50
2022-09-17T20:31:08.427Z,9.54
2022-09-17T20:33:35.006Z,9.48
2022-09-17T20:36:02.344Z,9.48
2022-09-17T20:39:10.661Z,9.47
2022-09-17T20:41:16.698Z,9.50
2022-09-17T20:43:45.304Z,9.57
2022-09-17T20:46:13.019Z,9.52
2022-09-17T20:48:40.088Z,9.47
2022-09-17T20:51:15.232Z,9.51
2022-09-17T20:53:43.118Z,9.53
2022-09-17T20:56:11.292Z,9.50
2022-09-17T20:58:45.211Z,9.48
2022-09-17T21:01:18.737Z,9.41
2022-09-17T21:03:46.829Z,9.40
2022-09-17T21:06:26.807Z,9.29
2022-09-17T21:08:54.300Z,9.40
2022-09-17T21:11:22.628Z,9.47
2022-09-17T21:13:49.635Z,9.43
2022-09-17T21:16:17.000Z,9.43
2022-09-17T21:18:44.092Z,9.45
2022-09-17T21:21:14.031Z,9.47
2022-09-17T21:23:41.654Z,9.50
2022-09-17T21:26:15.619Z,9.48
2022-09-17T21:28:44.596Z,9.51
2022-09-17T21:31:17.159Z,9.54
2022-09-17T21:33:45.584Z,9.51
2022-09-17T21:36:13.090Z,9.60
2022-09-17T21:38:41.014Z,9.53
2022-09-17T21:41:14.502Z,9.53
2022-09-17T21:43:42.773Z,9.54
2022-09-17T21:46:12.001Z,9.58
2022-09-17T21:48:45.890Z,9.58
2022-09-17T21:51:15.342Z,9.61
2022-09-17T21:53:42.437Z,9.65
2022-09-17T21:56:14.631Z,9.52
2022-09-17T21:58:43.524Z,9.53
2022-09-17T22:01:13.376Z,9.62
2022-09-17T22:03:40.988Z,9.62
2022-09-17T22:06:11.415Z,9.64
2022-09-17T22:08:39.584Z,9.69
2022-09-17T22:11:16.909Z,9.61
2022-09-17T22:14:04.631Z,9.58
2022-09-17T22:16:32.804Z,9.52
2022-09-17T22:18:59.816Z,9.53
2022-09-17T22:21:28.353Z,9.54
2022-09-17T22:23:57.319Z,9.57
2022-09-17T22:26:25.665Z,9.64
2022-09-17T22:28:53.288Z,9.59
2022-09-17T22:31:20.235Z,9.61
2022-09-17T22:33:50.340Z,9.61
2022-09-17T22:36:22.086Z,9.54
2022-09-17T22:38:50.955Z,9.61
2022-09-17T22:41:22.944Z,9.57
2022-09-17T22:43:53.751Z,9.56
2022-09-17T22:46:23.442Z,9.61
2022-09-17T22:48:50.060Z,9.73
2022-09-17T22:51:16.871Z,9.62
2022-09-17T22:53:43.547Z,9.70
2022-09-17T22:56:11.267Z,9.64
2022-09-17T22:58:37.887Z,9.64
2022-09-17T23:01:11.248Z,9.60
2022-09-17T23:03:38.655Z,9.60
2022-09-17T23:06:12.288Z,9.63
2022-09-17T23:08:39.307Z,9.54
2022-09-17T23:11:07.864Z,9.55
2022-09-17T23:13:35.277Z,9.62
2022-09-17T23:16:07.663Z,9.63
2022-09-17T23:18:35.172Z,9.60
2022-09-17T23:21:06.971Z,9.59
2022-09-17T23:23:34.733Z,9.63
2022-09-17T23:26:07.521Z,9.65
2022-09-17T23:28:35.339Z,9.61
2022-09-17T23:31:12.349Z,9.48
2022-09-17T23:33:39.044Z,9.60
2022-09-17T23:36:06.648Z,9.61
2022-09-17T23:38:34.338Z,9.64
2022-09-17T23:41:18.149Z,9.53
2022-09-17T23:43:47.556Z,9.52
2022-09-17T23:46:14.631Z,9.55
2022-09-17T23:48:41.859Z,9.55
2022-09-17T23:51:08.407Z,9.61
2022-09-17T23:53:35.344Z,9.65
2022-09-17T23:56:03.025Z,9.59
2022-09-17T23:58:30.645Z,9.57
